sensor_id;sensor_type;location;lat;lon;timestamp;temperature;humidity
18690;DHT22;9782;52.930;15.562;2022-10-31T00:00:44;11.30;1.00
18690;DHT22;9782;52.930;15.562;2022-10-31T00:03:12;11.30;1.00
18690;DHT22;9782;52.930;15.562;2022-10-31T00:05:41;11.30;1.00
18690;DHT22;9782;52.930;15.562;2022-10-31T00:08:10;11.20;1.00
18690;DHT22;9782;52.930;15.562;2022-10-31T00:11:02;11.30;1.00
18690;DHT22;9782;52.930;15.562;2022-10-31T00:13:35;11.20;1.00
18690;DHT22;9782;52.930;15.562;2022-10-31T00:16:03;11.10;1.00
18690;DHT22;9782;52.930;15.562;2022-10-31T00:18:31;11.10;1.00
18690;DHT22;9782;52.930;15.562;2022-10-31T00:20:59;11.00;1.00
18690;DHT22;9782;52.930;15.562;2022-10-31T00:23:33;11.00;1.00
18690;DHT22;9782;52.930;15.562;2022-10-31T00:26:00;10.90;1.00
18690;DHT22;9782;52.930;15.562;2022-10-31T00:28:28;10.90;1.00
18690;DHT22;9782;52.930;15.562;2022-10-31T00:30:59;10.90;1.00
18690;DHT22;9782;52.930;15.562;2022-10-31T00:33:27;10.90;1.00
18690;DHT22;9782;52.930;15.562;2022-10-31T00:35:55;10.90;99.90
18690;DHT22;9782;52.930;15.562;2022-10-31T00:38:23;10.90;99.90
18690;DHT22;9782;52.930;15.562;2022-10-31T00:40:52;10.80;99.90
18690;DHT22;9782;52.930;15.562;2022-10-31T00:43:19;10.80;1.00
18690;DHT22;9782;52.930;15.562;2022-10-31T00:45:47;10.70;1.00
18690;DHT22;9782;52.930;15.562;2022-10-31T00:48:14;10.70;54.70
18690;DHT22;9782;52.930;15.562;2022-10-31T00:50:42;10.70;1.00
18690;DHT22;9782;52.930;15.562;2022-10-31T00:53:10;10.70;1.00
18690;DHT22;9782;52.930;15.562;2022-10-31T00:55:37;10.60;1.00
18690;DHT22;9782;52.930;15.562;2022-10-31T00:58:06;10.60;1.00
18690;DHT22;9782;52.930;15.562;2022-10-31T01:00:34;10.50;1.00
18690;DHT22;9782;52.930;15.562;2022-10-31T01:03:01;10.50;99.90
18690;DHT22;9782;52.930;15.562;2022-10-31T01:05:28;10.50;99.90
18690;DHT22;9782;52.930;15.562;2022-10-31T01:07:56;10.50;99.90
18690;DHT22;9782;52.930;15.562;2022-10-31T01:10:23;10.50;99.90
18690;DHT22;9782;52.930;15.562;2022-10-31T01:12:51;10.50;99.90
18690;DHT22;9782;52.930;15.562;2022-10-31T01:15:21;10.50;99.90
18690;DHT22;9782;52.930;15.562;2022-10-31T01:17:49;10.50;99.90
18690;DHT22;9782;52.930;15.562;2022-10-31T01:20:17;10.50;1.00
18690;DHT22;9782;52.930;15.562;2022-10-31T01:22:44;10.50;1.00
18690;DHT22;9782;52.930;15.562;2022-10-31T01:25:12;10.60;1.00
18690;DHT22;9782;52.930;15.562;2022-10-31T01:27:39;10.50;1.00
18690;DHT22;9782;52.930;15.562;2022-10-31T01:30:08;10.50;99.90
18690;DHT22;9782;52.930;15.562;2022-10-31T01:32:37;10.40;99.90
18690;DHT22;9782;52.930;15.562;2022-10-31T01:35:04;10.40;99.90
18690;DHT22;9782;52.930;15.562;2022-10-31T01:37:32;10.40;99.90
18690;DHT22;9782;52.930;15.562;2022-10-31T01:39:59;10.30;99.90
18690;DHT22;9782;52.930;15.562;2022-10-31T01:42:26;10.30;99.90
18690;DHT22;9782;52.930;15.562;2022-10-31T01:44:57;10.30;99.90
18690;DHT22;9782;52.930;15.562;2022-10-31T01:47:33;10.30;99.90
18690;DHT22;9782;52.930;15.562;2022-10-31T01:50:06;10.30;1.00
18690;DHT22;9782;52.930;15.562;2022-10-31T01:52:39;10.30;1.00
18690;DHT22;9782;52.930;15.562;2022-10-31T01:55:12;10.30;1.00
18690;DHT22;9782;52.930;15.562;2022-10-31T01:57:43;10.30;1.00
18690;DHT22;9782;52.930;15.562;2022-10-31T02:00:13;10.30;1.00
18690;DHT22;9782;52.930;15.562;2022-10-31T02:02:42;10.30;99.90
18690;DHT22;9782;52.930;15.562;2022-10-31T02:05:14;10.30;99.90
18690;DHT22;9782;52.930;15.562;2022-10-31T02:07:48;10.30;99.90
18690;DHT22;9782;52.930;15.562;2022-10-31T02:10:16;10.20;99.90
18690;DHT22;9782;52.930;15.562;2022-10-31T02:12:44;10.20;99.90
18690;DHT22;9782;52.930;15.562;2022-10-31T02:15:13;10.20;99.90
18690;DHT22;9782;52.930;15.562;2022-10-31T02:17:40;10.20;99.90
18690;DHT22;9782;52.930;15.562;2022-10-31T02:20:15;10.10;99.90
18690;DHT22;9782;52.930;15.562;2022-10-31T02:23:04;10.20;99.90
18690;DHT22;9782;52.930;15.562;2022-10-31T02:26:12;10.10;99.90
18690;DHT22;9782;52.930;15.562;2022-10-31T02:29:00;10.20;1.00
18690;DHT22;9782;52.930;15.562;2022-10-31T02:31:39;10.20;99.90
18690;DHT22;9782;52.930;15.562;2022-10-31T02:34:16;10.20;99.90
18690;DHT22;9782;52.930;15.562;2022-10-31T02:36:52;10.20;99.90
18690;DHT22;9782;52.930;15.562;2022-10-31T02:39:24;10.20;99.90
18690;DHT22;9782;52.930;15.562;2022-10-31T02:42:01;10.20;99.90
18690;DHT22;9782;52.930;15.562;2022-10-31T02:44:36;10.20;99.90
18690;DHT22;9782;52.930;15.562;2022-10-31T02:47:08;10.20;99.90
18690;DHT22;9782;52.930;15.562;2022-10-31T02:49:39;10.20;99.90
18690;DHT22;9782;52.930;15.562;2022-10-31T02:52:17;10.20;99.90
18690;DHT22;9782;52.930;15.562;2022-10-31T02:54:46;10.20;99.90
18690;DHT22;9782;52.930;15.562;2022-10-31T02:57:17;10.20;99.90
18690;DHT22;9782;52.930;15.562;2022-10-31T02:59:47;10.10;99.90
18690;DHT22;9782;52.930;15.562;2022-10-31T03:02:30;10.10;99.90
18690;DHT22;9782;52.930;15.562;2022-10-31T03:08:08;10.10;99.90
18690;DHT22;9782;52.930;15.562;2022-10-31T03:10:41;10.10;1.00
18690;DHT22;9782;52.930;15.562;2022-10-31T03:13:14;10.10;1.00
18690;DHT22;9782;52.930;15.562;2022-10-31T03:15:49;10.10;1.00
18690;DHT22;9782;52.930;15.562;2022-10-31T03:18:21;10.10;1.00
18690;DHT22;9782;52.930;15.562;2022-10-31T03:20:57;10.00;1.00
18690;DHT22;9782;52.930;15.562;2022-10-31T03:23:27;10.10;1.00
18690;DHT22;9782;52.930;15.562;2022-10-31T03:25:55;10.00;1.00
18690;DHT22;9782;52.930;15.562;2022-10-31T03:28:28;10.00;99.90
18690;DHT22;9782;52.930;15.562;2022-10-31T03:30:56;9.90;1.00
18690;DHT22;9782;52.930;15.562;2022-10-31T03:33:31;9.90;1.00
18690;DHT22;9782;52.930;15.562;2022-10-31T03:36:02;10.00;1.00
18690;DHT22;9782;52.930;15.562;2022-10-31T03:38:31;10.00;1.00
18690;DHT22;9782;52.930;15.562;2022-10-31T03:41:02;10.00;99.90
18690;DHT22;9782;52.930;15.562;2022-10-31T03:43:35;10.10;99.90
18690;DHT22;9782;52.930;15.562;2022-10-31T03:46:06;10.10;99.90
18690;DHT22;9782;52.930;15.562;2022-10-31T03:48:35;10.10;88.70
18690;DHT22;9782;52.930;15.562;2022-10-31T03:51:10;10.00;77.70
18690;DHT22;9782;52.930;15.562;2022-10-31T03:53:43;10.00;1.00
18690;DHT22;9782;52.930;15.562;2022-10-31T03:56:17;10.00;1.00
18690;DHT22;9782;52.930;15.562;2022-10-31T03:58:51;10.00;1.00
18690;DHT22;9782;52.930;15.562;2022-10-31T04:01:21;10.00;1.00
18690;DHT22;9782;52.930;15.562;2022-10-31T04:03:53;10.00;1.00
18690;DHT22;9782;52.930;15.562;2022-10-31T04:06:21;10.00;1.00
18690;DHT22;9782;52.930;15.562;2022-10-31T04:08:54;9.90;1.00
18690;DHT22;9782;52.930;15.562;2022-10-31T04:11:26;9.90;1.00
18690;DHT22;9782;52.930;15.562;2022-10-31T04:13:57;9.90;99.90
18690;DHT22;9782;52.930;15.562;2022-10-31T04:16:27;9.80;99.90
18690;DHT22;9782;52.930;15.562;2022-10-31T04:18:56;9.80;99.90
18690;DHT22;9782;52.930;15.562;2022-10-31T04:21:27;9.80;99.90
18690;DHT22;9782;52.930;15.562;2022-10-31T04:23:55;9.80;99.90
18690;DHT22;9782;52.930;15.562;2022-10-31T04:26:23;9.80;99.90
18690;DHT22;9782;52.930;15.562;2022-10-31T04:28:50;9.80;99.90
18690;DHT22;9782;52.930;15.562;2022-10-31T04:31:18;9.80;99.90
18690;DHT22;9782;52.930;15.562;2022-10-31T04:33:45;9.80;99.90
18690;DHT22;9782;52.930;15.562;2022-10-31T04:36:14;9.80;99.90
18690;DHT22;9782;52.930;15.562;2022-10-31T04:38:41;9.80;99.90
18690;DHT22;9782;52.930;15.562;2022-10-31T04:41:09;9.80;99.90
18690;DHT22;9782;52.930;15.562;2022-10-31T04:43:36;9.80;99.90
18690;DHT22;9782;52.930;15.562;2022-10-31T04:46:04;9.70;99.90
18690;DHT22;9782;52.930;15.562;2022-10-31T04:48:32;9.70;99.90
18690;DHT22;9782;52.930;15.562;2022-10-31T04:51:00;9.70;99.90
18690;DHT22;9782;52.930;15.562;2022-10-31T04:53:29;9.70;99.90
18690;DHT22;9782;52.930;15.562;2022-10-31T04:55:59;9.80;99.90
18690;DHT22;9782;52.930;15.562;2022-10-31T04:58:29;9.80;99.90
18690;DHT22;9782;52.930;15.562;2022-10-31T05:00:57;9.70;99.90
18690;DHT22;9782;52.930;15.562;2022-10-31T05:03:24;9.70;99.90
18690;DHT22;9782;52.930;15.562;2022-10-31T05:05:51;9.70;99.90
18690;DHT22;9782;52.930;15.562;2022-10-31T05:08:19;9.70;1.00
18690;DHT22;9782;52.930;15.562;2022-10-31T05:10:48;9.70;1.00
18690;DHT22;9782;52.930;15.562;2022-10-31T05:13:15;9.70;1.00
18690;DHT22;9782;52.930;15.562;2022-10-31T05:15:43;9.60;99.90
18690;DHT22;9782;52.930;15.562;2022-10-31T05:18:10;9.50;5.20
18690;DHT22;9782;52.930;15.562;2022-10-31T05:20:38;9.50;1.00
18690;DHT22;9782;52.930;15.562;2022-10-31T05:23:05;9.40;1.00
18690;DHT22;9782;52.930;15.562;2022-10-31T05:25:32;9.40;1.00
18690;DHT22;9782;52.930;15.562;2022-10-31T05:28:01;9.30;1.00
18690;DHT22;9782;52.930;15.562;2022-10-31T05:30:30;9.30;1.00
18690;DHT22;9782;52.930;15.562;2022-10-31T05:32:58;9.30;1.00
18690;DHT22;9782;52.930;15.562;2022-10-31T05:35:27;9.40;1.00
18690;DHT22;9782;52.930;15.562;2022-10-31T05:37:55;9.40;1.00
18690;DHT22;9782;52.930;15.562;2022-10-31T05:40:24;9.50;1.00
18690;DHT22;9782;52.930;15.562;2022-10-31T05:42:52;9.50;1.00
18690;DHT22;9782;52.930;15.562;2022-10-31T05:45:22;9.50;1.00
18690;DHT22;9782;52.930;15.562;2022-10-31T05:47:51;9.50;1.00
18690;DHT22;9782;52.930;15.562;2022-10-31T05:50:18;9.60;1.00
18690;DHT22;9782;52.930;15.562;2022-10-31T05:52:46;9.50;1.00
18690;DHT22;9782;52.930;15.562;2022-10-31T05:55:13;9.60;1.00
18690;DHT22;9782;52.930;15.562;2022-10-31T05:57:40;9.60;1.00
18690;DHT22;9782;52.930;15.562;2022-10-31T06:00:09;9.60;1.00
18690;DHT22;9782;52.930;15.562;2022-10-31T06:02:37;9.60;1.00
18690;DHT22;9782;52.930;15.562;2022-10-31T06:05:04;9.60;1.00
18690;DHT22;9782;52.930;15.562;2022-10-31T06:07:32;9.70;1.00
18690;DHT22;9782;52.930;15.562;2022-10-31T06:10:00;9.80;1.00
18690;DHT22;9782;52.930;15.562;2022-10-31T06:12:27;9.70;1.00
18690;DHT22;9782;52.930;15.562;2022-10-31T06:14:54;9.80;1.00
18690;DHT22;9782;52.930;15.562;2022-10-31T06:17:21;9.90;1.00
18690;DHT22;9782;52.930;15.562;2022-10-31T06:19:49;9.90;1.00
18690;DHT22;9782;52.930;15.562;2022-10-31T06:22:16;9.90;88.30
18690;DHT22;9782;52.930;15.562;2022-10-31T06:24:43;10.00;99.90
18690;DHT22;9782;52.930;15.562;2022-10-31T06:27:10;10.00;99.90
18690;DHT22;9782;52.930;15.562;2022-10-31T06:29:37;10.10;99.90
18690;DHT22;9782;52.930;15.562;2022-10-31T06:32:05;10.10;92.30
18690;DHT22;9782;52.930;15.562;2022-10-31T06:34:32;10.10;99.90
18690;DHT22;9782;52.930;15.562;2022-10-31T06:37:00;10.20;99.90
18690;DHT22;9782;52.930;15.562;2022-10-31T06:39:28;10.20;16.70
18690;DHT22;9782;52.930;15.562;2022-10-31T06:41:55;10.20;1.00
18690;DHT22;9782;52.930;15.562;2022-10-31T06:44:22;10.20;6.20
18690;DHT22;9782;52.930;15.562;2022-10-31T06:46:49;10.20;99.90
18690;DHT22;9782;52.930;15.562;2022-10-31T06:49:16;10.30;70.40
18690;DHT22;9782;52.930;15.562;2022-10-31T06:51:42;10.30;1.00
18690;DHT22;9782;52.930;15.562;2022-10-31T06:54:11;10.30;1.00
18690;DHT22;9782;52.930;15.562;2022-10-31T06:56:38;10.40;1.00
18690;DHT22;9782;52.930;15.562;2022-10-31T06:59:05;10.50;1.00
18690;DHT22;9782;52.930;15.562;2022-10-31T07:01:32;10.50;1.00
18690;DHT22;9782;52.930;15.562;2022-10-31T07:03:59;10.50;1.00
18690;DHT22;9782;52.930;15.562;2022-10-31T07:06:26;10.60;1.00
18690;DHT22;9782;52.930;15.562;2022-10-31T07:08:53;10.70;1.00
18690;DHT22;9782;52.930;15.562;2022-10-31T07:11:21;10.70;1.00
18690;DHT22;9782;52.930;15.562;2022-10-31T07:13:48;10.80;1.00
18690;DHT22;9782;52.930;15.562;2022-10-31T07:16:15;10.80;1.00
18690;DHT22;9782;52.930;15.562;2022-10-31T07:18:42;10.90;99.90
18690;DHT22;9782;52.930;15.562;2022-10-31T07:21:09;11.00;99.90
18690;DHT22;9782;52.930;15.562;2022-10-31T07:23:36;11.00;99.90
18690;DHT22;9782;52.930;15.562;2022-10-31T07:26:03;11.10;99.90
18690;DHT22;9782;52.930;15.562;2022-10-31T07:28:32;11.10;99.90
18690;DHT22;9782;52.930;15.562;2022-10-31T07:30:59;11.10;99.90
18690;DHT22;9782;52.930;15.562;2022-10-31T07:33:26;11.20;99.90
18690;DHT22;9782;52.930;15.562;2022-10-31T07:35:53;11.30;99.90
18690;DHT22;9782;52.930;15.562;2022-10-31T07:38:20;11.30;99.90
18690;DHT22;9782;52.930;15.562;2022-10-31T07:40:50;11.40;99.90
18690;DHT22;9782;52.930;15.562;2022-10-31T07:43:18;11.40;99.90
18690;DHT22;9782;52.930;15.562;2022-10-31T07:45:50;11.50;99.90
18690;DHT22;9782;52.930;15.562;2022-10-31T07:48:18;11.50;99.90
18690;DHT22;9782;52.930;15.562;2022-10-31T07:50:45;11.70;99.90
18690;DHT22;9782;52.930;15.562;2022-10-31T07:53:14;11.70;99.90
18690;DHT22;9782;52.930;15.562;2022-10-31T07:55:50;11.70;99.90
18690;DHT22;9782;52.930;15.562;2022-10-31T07:58:17;11.80;99.90
18690;DHT22;9782;52.930;15.562;2022-10-31T08:00:46;11.90;99.90
18690;DHT22;9782;52.930;15.562;2022-10-31T08:03:16;12.00;99.90
18690;DHT22;9782;52.930;15.562;2022-10-31T08:05:44;12.10;99.90
18690;DHT22;9782;52.930;15.562;2022-10-31T08:08:12;12.20;99.90
18690;DHT22;9782;52.930;15.562;2022-10-31T08:10:39;12.30;99.90
18690;DHT22;9782;52.930;15.562;2022-10-31T08:13:09;12.40;99.90
18690;DHT22;9782;52.930;15.562;2022-10-31T08:15:36;12.60;99.90
18690;DHT22;9782;52.930;15.562;2022-10-31T08:18:05;12.60;1.00
18690;DHT22;9782;52.930;15.562;2022-10-31T08:20:34;12.70;1.00
18690;DHT22;9782;52.930;15.562;2022-10-31T08:23:02;12.80;1.00
18690;DHT22;9782;52.930;15.562;2022-10-31T08:25:30;12.90;58.10
18690;DHT22;9782;52.930;15.562;2022-10-31T08:27:58;13.00;42.00
18690;DHT22;9782;52.930;15.562;2022-10-31T08:30:27;13.10;1.00
18690;DHT22;9782;52.930;15.562;2022-10-31T08:33:01;13.20;1.00
18690;DHT22;9782;52.930;15.562;2022-10-31T08:35:28;13.30;1.00
18690;DHT22;9782;52.930;15.562;2022-10-31T08:37:57;13.30;1.00
18690;DHT22;9782;52.930;15.562;2022-10-31T08:40:26;13.40;1.00
18690;DHT22;9782;52.930;15.562;2022-10-31T08:43:00;13.50;1.00
18690;DHT22;9782;52.930;15.562;2022-10-31T08:45:28;13.60;1.00
18690;DHT22;9782;52.930;15.562;2022-10-31T08:47:58;13.70;1.00
18690;DHT22;9782;52.930;15.562;2022-10-31T08:50:27;13.80;1.00
18690;DHT22;9782;52.930;15.562;2022-10-31T08:53:01;13.80;1.00
18690;DHT22;9782;52.930;15.562;2022-10-31T08:55:28;13.90;1.00
18690;DHT22;9782;52.930;15.562;2022-10-31T08:57:55;14.10;1.00
18690;DHT22;9782;52.930;15.562;2022-10-31T09:00:23;14.10;1.00
18690;DHT22;9782;52.930;15.562;2022-10-31T09:02:55;14.30;1.00
18690;DHT22;9782;52.930;15.562;2022-10-31T09:05:23;14.40;38.90
18690;DHT22;9782;52.930;15.562;2022-10-31T09:07:50;14.60;1.00
18690;DHT22;9782;52.930;15.562;2022-10-31T09:10:18;14.70;1.00
18690;DHT22;9782;52.930;15.562;2022-10-31T09:12:45;14.80;1.00
18690;DHT22;9782;52.930;15.562;2022-10-31T09:15:13;14.90;1.00
18690;DHT22;9782;52.930;15.562;2022-10-31T09:17:46;15.10;1.00
18690;DHT22;9782;52.930;15.562;2022-10-31T09:20:13;15.20;1.00
18690;DHT22;9782;52.930;15.562;2022-10-31T09:22:40;15.30;99.90
18690;DHT22;9782;52.930;15.562;2022-10-31T09:25:10;15.40;99.90
18690;DHT22;9782;52.930;15.562;2022-10-31T09:27:47;15.50;99.90
18690;DHT22;9782;52.930;15.562;2022-10-31T09:30:15;15.50;99.90
18690;DHT22;9782;52.930;15.562;2022-10-31T09:32:42;15.70;99.90
18690;DHT22;9782;52.930;15.562;2022-10-31T09:35:09;15.70;99.90
18690;DHT22;9782;52.930;15.562;2022-10-31T09:37:36;15.70;99.90
18690;DHT22;9782;52.930;15.562;2022-10-31T09:40:04;15.80;99.90
18690;DHT22;9782;52.930;15.562;2022-10-31T09:42:47;15.80;99.90
18690;DHT22;9782;52.930;15.562;2022-10-31T09:45:20;15.80;1.00
18690;DHT22;9782;52.930;15.562;2022-10-31T09:48:00;16.00;99.90
18690;DHT22;9782;52.930;15.562;2022-10-31T09:50:34;16.10;99.90
18690;DHT22;9782;52.930;15.562;2022-10-31T09:53:05;16.10;99.90
18690;DHT22;9782;52.930;15.562;2022-10-31T09:55:39;16.30;99.90
18690;DHT22;9782;52.930;15.562;2022-10-31T09:58:15;16.40;99.90
18690;DHT22;9782;52.930;15.562;2022-10-31T10:00:43;16.50;99.90
18690;DHT22;9782;52.930;15.562;2022-10-31T10:03:18;16.60;1.00
18690;DHT22;9782;52.930;15.562;2022-10-31T10:05:53;16.70;1.00
18690;DHT22;9782;52.930;15.562;2022-10-31T10:08:27;16.90;99.90
18690;DHT22;9782;52.930;15.562;2022-10-31T10:11:07;16.90;44.40
18690;DHT22;9782;52.930;15.562;2022-10-31T10:13:50;16.90;1.00
18690;DHT22;9782;52.930;15.562;2022-10-31T10:16:52;17.00;1.00
18690;DHT22;9782;52.930;15.562;2022-10-31T10:19:50;17.00;99.90
18690;DHT22;9782;52.930;15.562;2022-10-31T10:22:30;17.00;99.90
18690;DHT22;9782;52.930;15.562;2022-10-31T10:25:14;17.00;99.90
18690;DHT22;9782;52.930;15.562;2022-10-31T10:27:52;17.00;1.00
18690;DHT22;9782;52.930;15.562;2022-10-31T10:30:29;17.00;1.00
18690;DHT22;9782;52.930;15.562;2022-10-31T10:32:59;17.00;1.00
18690;DHT22;9782;52.930;15.562;2022-10-31T10:35:31;17.20;1.00
18690;DHT22;9782;52.930;15.562;2022-10-31T10:38:04;17.20;1.00
18690;DHT22;9782;52.930;15.562;2022-10-31T10:40:37;17.30;99.90
18690;DHT22;9782;52.930;15.562;2022-10-31T10:43:19;17.20;99.90
18690;DHT22;9782;52.930;15.562;2022-10-31T10:45:55;17.20;99.90
18690;DHT22;9782;52.930;15.562;2022-10-31T10:48:48;17.30;1.00
18690;DHT22;9782;52.930;15.562;2022-10-31T10:51:21;17.30;1.00
18690;DHT22;9782;52.930;15.562;2022-10-31T10:54:16;17.40;1.00
18690;DHT22;9782;52.930;15.562;2022-10-31T10:57:00;17.50;99.90
18690;DHT22;9782;52.930;15.562;2022-10-31T10:59:28;17.40;83.60
18690;DHT22;9782;52.930;15.562;2022-10-31T11:01:58;17.50;1.00
18690;DHT22;9782;52.930;15.562;2022-10-31T11:04:32;17.50;1.00
18690;DHT22;9782;52.930;15.562;2022-10-31T11:07:02;17.60;1.00
18690;DHT22;9782;52.930;15.562;2022-10-31T11:09:29;17.60;99.90
18690;DHT22;9782;52.930;15.562;2022-10-31T11:11:57;17.60;99.90
18690;DHT22;9782;52.930;15.562;2022-10-31T11:14:25;17.60;99.90
18690;DHT22;9782;52.930;15.562;2022-10-31T11:17:07;17.60;99.90
18690;DHT22;9782;52.930;15.562;2022-10-31T11:19:36;17.60;99.90
18690;DHT22;9782;52.930;15.562;2022-10-31T11:22:08;17.70;96.00
18690;DHT22;9782;52.930;15.562;2022-10-31T11:24:40;17.80;1.00
18690;DHT22;9782;52.930;15.562;2022-10-31T11:27:15;17.80;1.00
18690;DHT22;9782;52.930;15.562;2022-10-31T11:29:42;17.90;1.00
18690;DHT22;9782;52.930;15.562;2022-10-31T11:32:19;18.00;1.00
18690;DHT22;9782;52.930;15.562;2022-10-31T11:34:48;18.00;99.90
18690;DHT22;9782;52.930;15.562;2022-10-31T11:37:18;18.00;99.90
18690;DHT22;9782;52.930;15.562;2022-10-31T11:39:50;17.90;1.00
18690;DHT22;9782;52.930;15.562;2022-10-31T11:42:21;17.90;93.20
18690;DHT22;9782;52.930;15.562;2022-10-31T11:44:49;17.90;1.00
18690;DHT22;9782;52.930;15.562;2022-10-31T11:47:24;17.80;1.00
18690;DHT22;9782;52.930;15.562;2022-10-31T11:49:52;17.80;1.00
18690;DHT22;9782;52.930;15.562;2022-10-31T11:52:22;17.80;1.00
18690;DHT22;9782;52.930;15.562;2022-10-31T11:54:54;17.90;1.00
18690;DHT22;9782;52.930;15.562;2022-10-31T11:57:23;18.00;1.00
18690;DHT22;9782;52.930;15.562;2022-10-31T11:59:52;18.10;1.00
18690;DHT22;9782;52.930;15.562;2022-10-31T12:02:21;18.20;1.00
18690;DHT22;9782;52.930;15.562;2022-10-31T12:04:53;18.20;99.90
18690;DHT22;9782;52.930;15.562;2022-10-31T12:07:22;18.30;99.90
18690;DHT22;9782;52.930;15.562;2022-10-31T12:09:50;18.40;99.90
18690;DHT22;9782;52.930;15.562;2022-10-31T12:12:33;18.50;99.90
18690;DHT22;9782;52.930;15.562;2022-10-31T12:15:13;18.60;99.90
18690;DHT22;9782;52.930;15.562;2022-10-31T12:17:48;18.70;90.80
18690;DHT22;9782;52.930;15.562;2022-10-31T12:20:25;18.70;94.60
18690;DHT22;9782;52.930;15.562;2022-10-31T12:23:01;18.80;96.20
18690;DHT22;9782;52.930;15.562;2022-10-31T12:25:38;18.80;1.00
18690;DHT22;9782;52.930;15.562;2022-10-31T12:28:19;18.80;1.00
18690;DHT22;9782;52.930;15.562;2022-10-31T12:31:00;18.70;1.00
18690;DHT22;9782;52.930;15.562;2022-10-31T12:33:45;18.60;1.00
18690;DHT22;9782;52.930;15.562;2022-10-31T12:36:39;18.60;1.00
18690;DHT22;9782;52.930;15.562;2022-10-31T12:39:19;18.70;4.40
18690;DHT22;9782;52.930;15.562;2022-10-31T12:41:52;18.70;1.00
18690;DHT22;9782;52.930;15.562;2022-10-31T12:44:58;18.60;1.00
18690;DHT22;9782;52.930;15.562;2022-10-31T12:47:37;18.50;1.00
18690;DHT22;9782;52.930;15.562;2022-10-31T12:50:22;18.50;1.00
18690;DHT22;9782;52.930;15.562;2022-10-31T12:53:00;18.30;1.00
18690;DHT22;9782;52.930;15.562;2022-10-31T12:55:43;18.20;1.00
18690;DHT22;9782;52.930;15.562;2022-10-31T12:58:17;18.10;30.80
18690;DHT22;9782;52.930;15.562;2022-10-31T13:00:51;18.00;14.10
18690;DHT22;9782;52.930;15.562;2022-10-31T13:03:24;17.90;87.80
18690;DHT22;9782;52.930;15.562;2022-10-31T13:05:56;17.80;99.90
18690;DHT22;9782;52.930;15.562;2022-10-31T13:08:28;17.70;99.90
18690;DHT22;9782;52.930;15.562;2022-10-31T13:11:08;17.70;99.90
18690;DHT22;9782;52.930;15.562;2022-10-31T13:13:39;17.60;99.90
18690;DHT22;9782;52.930;15.562;2022-10-31T13:16:12;17.60;99.90
18690;DHT22;9782;52.930;15.562;2022-10-31T13:18:44;17.60;99.90
18690;DHT22;9782;52.930;15.562;2022-10-31T13:21:18;17.50;99.90
18690;DHT22;9782;52.930;15.562;2022-10-31T13:23:49;17.50;99.90
18690;DHT22;9782;52.930;15.562;2022-10-31T13:26:22;17.50;99.90
18690;DHT22;9782;52.930;15.562;2022-10-31T13:28:56;17.40;99.90
18690;DHT22;9782;52.930;15.562;2022-10-31T13:31:24;17.40;99.90
18690;DHT22;9782;52.930;15.562;2022-10-31T13:33:56;17.30;99.90
18690;DHT22;9782;52.930;15.562;2022-10-31T13:36:31;17.20;1.00
18690;DHT22;9782;52.930;15.562;2022-10-31T13:39:04;17.10;1.00
18690;DHT22;9782;52.930;15.562;2022-10-31T13:41:42;17.00;1.00
18690;DHT22;9782;52.930;15.562;2022-10-31T13:44:14;16.90;1.00
18690;DHT22;9782;52.930;15.562;2022-10-31T13:46:43;16.90;1.00
18690;DHT22;9782;52.930;15.562;2022-10-31T13:49:37;16.80;1.00
18690;DHT22;9782;52.930;15.562;2022-10-31T13:52:13;16.80;1.00
18690;DHT22;9782;52.930;15.562;2022-10-31T13:54:42;16.80;1.00
18690;DHT22;9782;52.930;15.562;2022-10-31T13:57:16;16.70;1.00
18690;DHT22;9782;52.930;15.562;2022-10-31T13:59:48;16.60;1.00
18690;DHT22;9782;52.930;15.562;2022-10-31T14:02:17;16.60;23.20
18690;DHT22;9782;52.930;15.562;2022-10-31T14:04:48;16.50;99.90
18690;DHT22;9782;52.930;15.562;2022-10-31T14:07:20;16.50;99.90
18690;DHT22;9782;52.930;15.562;2022-10-31T14:09:54;16.40;99.90
18690;DHT22;9782;52.930;15.562;2022-10-31T14:12:26;16.40;99.90
18690;DHT22;9782;52.930;15.562;2022-10-31T14:14:56;16.30;99.90
18690;DHT22;9782;52.930;15.562;2022-10-31T14:17:26;16.30;99.90
18690;DHT22;9782;52.930;15.562;2022-10-31T14:22:46;16.20;99.90
18690;DHT22;9782;52.930;15.562;2022-10-31T14:25:30;16.10;99.90
18690;DHT22;9782;52.930;15.562;2022-10-31T14:27:59;16.00;1.00
18690;DHT22;9782;52.930;15.562;2022-10-31T14:30:27;15.90;1.00
18690;DHT22;9782;52.930;15.562;2022-10-31T14:32:58;15.80;1.00
18690;DHT22;9782;52.930;15.562;2022-10-31T14:35:41;15.70;1.00
18690;DHT22;9782;52.930;15.562;2022-10-31T14:38:28;15.60;1.00
18690;DHT22;9782;52.930;15.562;2022-10-31T14:44:18;15.30;3.60
18690;DHT22;9782;52.930;15.562;2022-10-31T14:46:55;15.20;99.90
18690;DHT22;9782;52.930;15.562;2022-10-31T14:49:39;15.20;99.90
18690;DHT22;9782;52.930;15.562;2022-10-31T14:52:13;15.10;1.00
18690;DHT22;9782;52.930;15.562;2022-10-31T14:54:45;15.00;1.00
18690;DHT22;9782;52.930;15.562;2022-10-31T14:57:16;14.90;1.00
18690;DHT22;9782;52.930;15.562;2022-10-31T14:59:49;14.90;1.00
18690;DHT22;9782;52.930;15.562;2022-10-31T15:02:20;14.80;74.40
18690;DHT22;9782;52.930;15.562;2022-10-31T15:04:51;14.70;99.90
18690;DHT22;9782;52.930;15.562;2022-10-31T15:07:21;14.70;99.90
18690;DHT22;9782;52.930;15.562;2022-10-31T15:09:57;14.60;1.00
18690;DHT22;9782;52.930;15.562;2022-10-31T15:12:27;14.50;1.00
18690;DHT22;9782;52.930;15.562;2022-10-31T15:14:54;14.50;1.00
18690;DHT22;9782;52.930;15.562;2022-10-31T15:17:22;14.40;1.00
18690;DHT22;9782;52.930;15.562;2022-10-31T15:19:50;14.20;47.80
18690;DHT22;9782;52.930;15.562;2022-10-31T15:22:19;14.20;99.90
18690;DHT22;9782;52.930;15.562;2022-10-31T15:24:48;14.10;1.00
18690;DHT22;9782;52.930;15.562;2022-10-31T15:27:23;14.00;1.00
18690;DHT22;9782;52.930;15.562;2022-10-31T15:29:51;13.90;1.00
18690;DHT22;9782;52.930;15.562;2022-10-31T15:32:21;13.90;99.90
18690;DHT22;9782;52.930;15.562;2022-10-31T15:34:49;13.80;1.00
18690;DHT22;9782;52.930;15.562;2022-10-31T15:37:18;13.80;1.00
18690;DHT22;9782;52.930;15.562;2022-10-31T15:39:47;13.70;1.00
18690;DHT22;9782;52.930;15.562;2022-10-31T15:42:19;13.70;1.00
18690;DHT22;9782;52.930;15.562;2022-10-31T15:44:53;13.60;1.00
18690;DHT22;9782;52.930;15.562;2022-10-31T15:47:23;13.60;1.00
18690;DHT22;9782;52.930;15.562;2022-10-31T15:49:52;13.50;1.00
18690;DHT22;9782;52.930;15.562;2022-10-31T15:52:27;13.40;1.00
18690;DHT22;9782;52.930;15.562;2022-10-31T15:54:58;13.40;1.00
18690;DHT22;9782;52.930;15.562;2022-10-31T15:57:26;13.30;99.90
18690;DHT22;9782;52.930;15.562;2022-10-31T15:59:55;13.20;1.00
18690;DHT22;9782;52.930;15.562;2022-10-31T16:02:24;13.10;99.90
18690;DHT22;9782;52.930;15.562;2022-10-31T16:04:54;13.10;99.90
18690;DHT22;9782;52.930;15.562;2022-10-31T16:07:22;13.00;99.90
18690;DHT22;9782;52.930;15.562;2022-10-31T16:09:51;12.90;1.00
18690;DHT22;9782;52.930;15.562;2022-10-31T16:12:19;12.90;1.00
18690;DHT22;9782;52.930;15.562;2022-10-31T16:14:46;12.90;1.00